Time;durP1;ratioP1;P1;durP2;ratioP2;P2;SDS_P1;SDS_P2;PMS_P1;PMS_P2;Temp;Humidity;BMP_temperature;BMP_pressure;BME280_temperature;BME280_humidity;BME280_pressure;Samples;Min_cycle;Max_cycle;Signal;HPM_P1;HPM_P2
2023/02/05 00:01:22;;;;;;;8.55;6.68;;;;;;;;;;5140088;27;20188;-58
2023/02/05 00:03:49;;;;;;;7.15;6.45;;;;;;;;;;5140332;27;20207;-58
2023/02/05 00:06:16;;;;;;;11.40;8.70;;;;;;;;;;5140413;27;20188;-59
2023/02/05 00:08:43;;;;;;;16.27;14.57;;;;;;;;;;5140763;27;20187;-58
2023/02/05 00:11:10;;;;;;;13.10;11.73;;;;;;;;;;5140653;27;20619;-58
2023/02/05 00:13:37;;;;;;;10.07;8.98;;;;;;;;;;5140582;27;20681;-59
2023/02/05 00:16:08;;;;;;;6.85;6.15;;;;;;;;;;5140507;27;20188;-59
2023/02/05 00:18:37;;;;;;;6.50;5.65;;;;;;;;;;5140291;27;20219;-57
2023/02/05 00:21:04;;;;;;;5.20;4.80;;;;;;;;;;5140596;27;20578;-59
2023/02/05 00:23:31;;;;;;;7.57;6.38;;;;;;;;;;5140567;27;20184;-59
2023/02/05 00:25:58;;;;;;;7.75;7.05;;;;;;;;;;5140492;27;20187;-59
2023/02/05 00:28:24;;;;;;;7.15;6.05;;;;;;;;;;5140405;27;20550;-58
2023/02/05 00:30:51;;;;;;;8.85;6.65;;;;;;;;;;5140390;27;20627;-59
2023/02/05 00:33:18;;;;;;;7.68;6.82;;;;;;;;;;5140235;27;20191;-57
2023/02/05 00:35:47;;;;;;;8.75;7.95;;;;;;;;;;5140458;27;20271;-58
2023/02/05 00:38:13;;;;;;;9.23;7.85;;;;;;;;;;5140295;27;20212;-58
2023/02/05 00:40:40;;;;;;;13.02;11.13;;;;;;;;;;5140393;27;20183;-59
2023/02/05 00:43:07;;;;;;;13.23;9.80;;;;;;;;;;5140502;27;20278;-58
2023/02/05 00:45:34;;;;;;;12.32;9.50;;;;;;;;;;5139996;27;20227;-59
2023/02/05 00:48:01;;;;;;;9.80;8.73;;;;;;;;;;5140161;27;20611;-59
2023/02/05 00:50:28;;;;;;;8.80;7.90;;;;;;;;;;5140346;27;20312;-59
2023/02/05 00:52:56;;;;;;;8.95;8.15;;;;;;;;;;5140217;27;20193;-58
2023/02/05 00:55:24;;;;;;;8.73;7.80;;;;;;;;;;5140048;27;20643;-57
2023/02/05 00:57:51;;;;;;;9.52;8.52;;;;;;;;;;5140001;27;20237;-57
2023/02/05 01:00:18;;;;;;;11.02;8.52;;;;;;;;;;5139951;27;20222;-58
2023/02/05 01:02:45;;;;;;;8.88;7.97;;;;;;;;;;5140244;27;20198;-58
2023/02/05 01:05:12;;;;;;;8.13;7.30;;;;;;;;;;5140149;27;20194;-58
2023/02/05 01:07:39;;;;;;;8.05;7.25;;;;;;;;;;5140128;27;20194;-58
2023/02/05 01:10:08;;;;;;;7.40;6.22;;;;;;;;;;5139885;27;20189;-58
2023/02/05 01:12:35;;;;;;;7.43;6.30;;;;;;;;;;5135902;27;20195;-60
2023/02/05 01:15:02;;;;;;;8.65;6.63;;;;;;;;;;5136914;27;20194;-59
2023/02/05 01:17:29;;;;;;;6.38;5.65;;;;;;;;;;5136824;27;20282;-59
2023/02/05 01:19:56;;;;;;;5.70;5.00;;;;;;;;;;5136652;27;20218;-58
2023/02/05 01:22:23;;;;;;;5.85;5.25;;;;;;;;;;5136664;27;20187;-58
2023/02/05 01:24:50;;;;;;;6.90;5.47;;;;;;;;;;5136581;27;20202;-59
2023/02/05 01:27:18;;;;;;;8.50;5.80;;;;;;;;;;5136360;27;20184;-59
2023/02/05 01:29:45;;;;;;;9.05;6.03;;;;;;;;;;5136665;27;20294;-59
2023/02/05 01:32:12;;;;;;;9.98;6.38;;;;;;;;;;5136658;27;20188;-58
2023/02/05 01:34:39;;;;;;;12.25;7.28;;;;;;;;;;5136431;27;20283;-58
2023/02/05 01:37:06;;;;;;;13.23;8.55;;;;;;;;;;5136459;27;20188;-59
2023/02/05 01:39:35;;;;;;;12.68;7.45;;;;;;;;;;5136220;27;20575;-59
2023/02/05 01:42:02;;;;;;;12.93;6.85;;;;;;;;;;5136021;27;20188;-56
2023/02/05 01:44:31;;;;;;;12.13;6.75;;;;;;;;;;5136124;27;20191;-60
2023/02/05 01:46:58;;;;;;;10.02;6.25;;;;;;;;;;5136085;27;20184;-58
2023/02/05 01:49:27;;;;;;;8.38;5.88;;;;;;;;;;5136156;27;20203;-58
2023/02/05 01:51:55;;;;;;;6.53;5.80;;;;;;;;;;5136014;27;20187;-58
2023/02/05 01:54:23;;;;;;;10.57;6.07;;;;;;;;;;5135968;27;20192;-58
2023/02/05 01:56:53;;;;;;;6.50;4.20;;;;;;;;;;5136081;27;20191;-58
2023/02/05 01:59:23;;;;;;;6.38;4.45;;;;;;;;;;5135763;27;20709;-59
2023/02/05 02:01:51;;;;;;;12.52;7.25;;;;;;;;;;5135885;27;20274;-58
2023/02/05 02:04:21;;;;;;;7.22;6.07;;;;;;;;;;5135833;27;20204;-59
2023/02/05 02:06:48;;;;;;;7.70;5.75;;;;;;;;;;5135754;27;20191;-59
2023/02/05 02:09:15;;;;;;;8.55;6.97;;;;;;;;;;5135551;27;20571;-59
2023/02/05 02:11:43;;;;;;;7.13;5.65;;;;;;;;;;5135826;27;20705;-59
2023/02/05 02:14:10;;;;;;;10.15;5.55;;;;;;;;;;5135469;27;20658;-59
2023/02/05 02:16:38;;;;;;;10.63;6.88;;;;;;;;;;5135634;27;20194;-58
2023/02/05 02:19:10;;;;;;;8.18;5.72;;;;;;;;;;5135362;27;20567;-58
2023/02/05 02:22:00;;;;;;;5.57;4.85;;;;;;;;;;5135415;27;20279;-58
2023/02/05 02:24:34;;;;;;;5.20;4.80;;;;;;;;;;5135420;27;20198;-57
2023/02/05 02:27:06;;;;;;;5.43;4.88;;;;;;;;;;5135455;27;20192;-58
2023/02/05 02:29:37;;;;;;;4.35;3.95;;;;;;;;;;5135570;27;20554;-58
2023/02/05 02:32:10;;;;;;;4.72;4.15;;;;;;;;;;5135158;27;20550;-58
2023/02/05 02:34:39;;;;;;;5.78;4.00;;;;;;;;;;5135361;27;20195;-59
2023/02/05 02:37:08;;;;;;;8.27;3.60;;;;;;;;;;5135234;27;20192;-59
2023/02/05 02:39:40;;;;;;;8.77;4.35;;;;;;;;;;5135036;27;20538;-58
2023/02/05 02:42:12;;;;;;;3.33;3.08;;;;;;;;;;5135060;27;20192;-59
2023/02/05 02:44:42;;;;;;;2.70;2.50;;;;;;;;;;5135033;27;20198;-59
2023/02/05 02:47:13;;;;;;;2.90;2.70;;;;;;;;;;5134846;27;20201;-58
2023/02/05 02:49:42;;;;;;;3.47;2.80;;;;;;;;;;5134984;27;20191;-59
2023/02/05 02:52:12;;;;;;;5.15;2.58;;;;;;;;;;5134863;27;20188;-58
2023/02/05 02:54:40;;;;;;;3.40;2.65;;;;;;;;;;5134703;27;20191;-58
2023/02/05 02:57:09;;;;;;;3.00;2.40;;;;;;;;;;5134948;27;20535;-59
2023/02/05 02:59:37;;;;;;;3.47;3.13;;;;;;;;;;5134793;27;20221;-59
2023/02/05 03:02:07;;;;;;;4.10;2.28;;;;;;;;;;5134709;27;20216;-59
2023/02/05 03:04:34;;;;;;;3.20;2.90;;;;;;;;;;5134619;27;20240;-58
2023/02/05 03:07:04;;;;;;;3.63;2.92;;;;;;;;;;5134568;27;20188;-59
2023/02/05 03:09:33;;;;;;;4.15;3.08;;;;;;;;;;5134665;27;20295;-58
2023/02/05 03:12:00;;;;;;;2.88;2.67;;;;;;;;;;5134598;27;20599;-58
2023/02/05 03:14:27;;;;;;;12.30;4.53;;;;;;;;;;5134484;27;20190;-58
2023/02/05 03:16:54;;;;;;;3.78;3.45;;;;;;;;;;5134458;27;20190;-58
2023/02/05 03:19:22;;;;;;;3.45;3.03;;;;;;;;;;5134253;27;20211;-57
2023/02/05 03:21:51;;;;;;;2.88;2.58;;;;;;;;;;5134217;27;20197;-59
2023/02/05 03:24:18;;;;;;;3.20;2.90;;;;;;;;;;5134435;27;20183;-59
2023/02/05 03:26:45;;;;;;;6.45;3.35;;;;;;;;;;5134378;27;20192;-58
2023/02/05 03:29:14;;;;;;;4.05;2.83;;;;;;;;;;5134316;27;20218;-59
2023/02/05 03:31:45;;;;;;;3.50;2.60;;;;;;;;;;5134265;27;20187;-59
2023/02/05 03:34:17;;;;;;;3.97;3.22;;;;;;;;;;5133636;27;20211;-56
2023/02/05 03:36:50;;;;;;;7.28;3.58;;;;;;;;;;5134350;27;20287;-59
2023/02/05 03:39:25;;;;;;;4.05;2.90;;;;;;;;;;5134164;27;20230;-58
2023/02/05 03:41:58;;;;;;;4.13;3.13;;;;;;;;;;5134108;27;20187;-59
2023/02/05 03:44:28;;;;;;;2.92;2.65;;;;;;;;;;5133885;27;20198;-58
2023/02/05 03:46:59;;;;;;;5.68;3.20;;;;;;;;;;5133968;27;20712;-58
2023/02/05 03:49:32;;;;;;;3.53;3.03;;;;;;;;;;5134149;27;20196;-58
2023/02/05 03:52:03;;;;;;;4.72;3.20;;;;;;;;;;5134145;27;20195;-59
2023/02/05 03:54:35;;;;;;;2.97;2.78;;;;;;;;;;5133970;27;20198;-58
2023/02/05 03:57:05;;;;;;;3.50;3.20;;;;;;;;;;5133883;28;20191;-58
2023/02/05 03:59:33;;;;;;;4.40;3.10;;;;;;;;;;5133635;28;20306;-58
2023/02/05 04:02:01;;;;;;;5.25;3.50;;;;;;;;;;5133906;28;20210;-58
2023/02/05 04:04:28;;;;;;;3.13;2.55;;;;;;;;;;5133867;28;20188;-59
2023/02/05 04:06:55;;;;;;;2.65;2.42;;;;;;;;;;5133699;28;20646;-58
2023/02/05 04:09:24;;;;;;;3.85;2.65;;;;;;;;;;5133754;28;20198;-58
2023/02/05 04:11:51;;;;;;;4.82;2.95;;;;;;;;;;5133679;28;20200;-56
2023/02/05 04:14:17;;;;;;;3.45;2.90;;;;;;;;;;5133585;28;20681;-59
2023/02/05 04:16:44;;;;;;;3.17;2.88;;;;;;;;;;5133807;28;20187;-59
2023/02/05 04:19:11;;;;;;;2.80;2.60;;;;;;;;;;5133611;28;20183;-58
2023/02/05 04:21:38;;;;;;;3.47;2.50;;;;;;;;;;5133679;28;20190;-59
2023/02/05 04:24:06;;;;;;;4.35;3.65;;;;;;;;;;5133546;28;20188;-57
2023/02/05 04:26:34;;;;;;;3.83;3.40;;;;;;;;;;5133431;28;20187;-58
2023/02/05 04:29:01;;;;;;;3.78;3.20;;;;;;;;;;5133685;28;20187;-58
2023/02/05 04:31:28;;;;;;;3.88;3.58;;;;;;;;;;5133637;28;20279;-59
2023/02/05 04:33:55;;;;;;;4.13;3.72;;;;;;;;;;5133459;28;20214;-57
2023/02/05 04:36:22;;;;;;;3.35;3.05;;;;;;;;;;5133522;28;20195;-59
2023/02/05 04:38:49;;;;;;;12.95;4.47;;;;;;;;;;5133443;28;20290;-56
2023/02/05 04:41:15;;;;;;;3.55;3.15;;;;;;;;;;5133237;28;20233;-58
2023/02/05 04:43:44;;;;;;;5.38;4.13;;;;;;;;;;5133553;28;20188;-59
2023/02/05 04:46:11;;;;;;;3.75;3.40;;;;;;;;;;5133413;27;20306;-58
2023/02/05 04:48:39;;;;;;;4.50;3.88;;;;;;;;;;5137308;27;20495;-59
2023/02/05 04:51:07;;;;;;;3.78;3.35;;;;;;;;;;5137178;27;20191;-59
2023/02/05 04:53:34;;;;;;;5.35;3.22;;;;;;;;;;5137181;27;20601;-59
2023/02/05 04:56:05;;;;;;;3.28;2.95;;;;;;;;;;5137306;27;20278;-60
2023/02/05 04:58:32;;;;;;;7.03;4.68;;;;;;;;;;5137199;27;20559;-59
2023/02/05 05:01:00;;;;;;;6.25;5.47;;;;;;;;;;5137056;27;20746;-59
2023/02/05 05:03:27;;;;;;;7.55;4.90;;;;;;;;;;5137012;27;20287;-59
2023/02/05 05:05:54;;;;;;;4.35;3.92;;;;;;;;;;5136858;27;20271;-59
2023/02/05 05:08:21;;;;;;;4.20;3.80;;;;;;;;;;5136835;27;20241;-58
2023/02/05 05:10:48;;;;;;;3.50;3.13;;;;;;;;;;5136994;27;20198;-57
2023/02/05 05:13:15;;;;;;;4.60;3.85;;;;;;;;;;5136721;27;20705;-58
2023/02/05 05:15:42;;;;;;;7.38;3.15;;;;;;;;;;5136847;27;20197;-57
2023/02/05 05:18:10;;;;;;;3.28;3.03;;;;;;;;;;5136759;27;20190;-59
2023/02/05 05:20:37;;;;;;;3.13;2.90;;;;;;;;;;5136473;27;20640;-59
2023/02/05 05:23:04;;;;;;;6.28;3.30;;;;;;;;;;5136555;27;20188;-58
2023/02/05 05:25:31;;;;;;;3.83;3.50;;;;;;;;;;5136592;27;20191;-59
2023/02/05 05:27:58;;;;;;;4.85;3.97;;;;;;;;;;5136457;27;20188;-59
2023/02/05 05:30:25;;;;;;;3.35;3.05;;;;;;;;;;5136362;27;20673;-59
2023/02/05 05:32:52;;;;;;;6.95;3.78;;;;;;;;;;5136376;27;20192;-59
2023/02/05 05:35:20;;;;;;;3.70;3.22;;;;;;;;;;5136238;27;20188;-58
2023/02/05 05:37:47;;;;;;;4.05;3.20;;;;;;;;;;5136400;27;20198;-58
2023/02/05 05:45:49;;;;;;;4.07;3.67;;;;;;;;;;5135871;27;20227;-58
2023/02/05 05:48:16;;;;;;;3.97;3.65;;;;;;;;;;5136249;27;20191;-58
2023/02/05 05:50:45;;;;;;;10.07;6.50;;;;;;;;;;5136220;27;20192;-57
2023/02/05 05:53:12;;;;;;;9.90;6.40;;;;;;;;;;5136021;27;20188;-59
2023/02/05 05:55:39;;;;;;;5.47;4.80;;;;;;;;;;5135832;27;20550;-59
2023/02/05 05:58:06;;;;;;;9.63;5.82;;;;;;;;;;5135420;27;20243;-58
2023/02/05 06:00:33;;;;;;;9.60;6.30;;;;;;;;;;5135995;27;20219;-57
2023/02/05 06:03:00;;;;;;;11.52;5.05;;;;;;;;;;5136048;27;20546;-58
2023/02/05 06:05:27;;;;;;;6.28;3.80;;;;;;;;;;5135902;27;20192;-59
2023/02/05 06:07:55;;;;;;;6.50;4.32;;;;;;;;;;5135878;27;20192;-59
2023/02/05 06:10:22;;;;;;;4.60;4.20;;;;;;;;;;5135723;27;20187;-56
2023/02/05 06:12:51;;;;;;;11.48;4.78;;;;;;;;;;5135487;27;20194;-58
2023/02/05 06:15:18;;;;;;;8.95;4.32;;;;;;;;;;5135712;27;20277;-59
2023/02/05 06:17:45;;;;;;;12.27;4.80;;;;;;;;;;5135683;27;20558;-58
2023/02/05 06:20:13;;;;;;;6.63;5.28;;;;;;;;;;5135360;27;20712;-59
2023/02/05 06:22:40;;;;;;;4.90;4.15;;;;;;;;;;5135486;27;20274;-59
2023/02/05 06:25:08;;;;;;;4.85;4.28;;;;;;;;;;5135317;27;20193;-58
2023/02/05 06:27:35;;;;;;;3.58;3.28;;;;;;;;;;5135271;27;20190;-59
2023/02/05 06:30:03;;;;;;;7.20;4.40;;;;;;;;;;5135409;27;20192;-59
2023/02/05 06:32:30;;;;;;;6.13;4.45;;;;;;;;;;5135181;27;20223;-57
2023/02/05 06:34:56;;;;;;;7.05;4.90;;;;;;;;;;5135351;27;20190;-58
2023/02/05 06:37:24;;;;;;;5.63;4.60;;;;;;;;;;5135132;27;20270;-58
2023/02/05 06:39:51;;;;;;;12.63;5.57;;;;;;;;;;5134865;27;20227;-58
2023/02/05 06:42:19;;;;;;;9.98;7.65;;;;;;;;;;5135244;27;20642;-58
2023/02/05 06:44:46;;;;;;;17.00;15.35;;;;;;;;;;5134873;27;20219;-58
2023/02/05 06:47:13;;;;;;;15.65;14.15;;;;;;;;;;5135082;27;20213;-58
2023/02/05 06:49:40;;;;;;;10.80;9.90;;;;;;;;;;5134925;27;20195;-58
2023/02/05 06:52:07;;;;;;;8.30;7.47;;;;;;;;;;5134816;27;20288;-58
2023/02/05 06:54:34;;;;;;;10.98;6.35;;;;;;;;;;5134797;27;20198;-58
2023/02/05 06:57:01;;;;;;;7.47;5.55;;;;;;;;;;5134906;27;20665;-58
2023/02/05 06:59:29;;;;;;;5.65;5.15;;;;;;;;;;5134820;27;20188;-58
2023/02/05 07:01:56;;;;;;;7.40;4.53;;;;;;;;;;5134664;27;20410;-58
2023/02/05 07:04:25;;;;;;;4.60;4.20;;;;;;;;;;5134664;27;20210;-58
2023/02/05 07:06:54;;;;;;;6.32;4.88;;;;;;;;;;5134520;27;20234;-57
2023/02/05 07:09:21;;;;;;;4.47;4.07;;;;;;;;;;5133896;27;20542;-58
2023/02/05 07:11:48;;;;;;;4.55;4.15;;;;;;;;;;5134631;27;20282;-56
2023/02/05 07:14:15;;;;;;;6.88;3.83;;;;;;;;;;5134531;27;20280;-58
2023/02/05 07:16:43;;;;;;;4.32;3.80;;;;;;;;;;5134470;27;20274;-58
2023/02/05 07:19:10;;;;;;;3.60;3.30;;;;;;;;;;5134396;27;20287;-58
2023/02/05 07:21:37;;;;;;;3.45;3.15;;;;;;;;;;5134203;27;20220;-58
2023/02/05 07:24:05;;;;;;;4.03;3.70;;;;;;;;;;5134481;27;20183;-59
2023/02/05 07:26:32;;;;;;;4.28;3.90;;;;;;;;;;5134388;27;20199;-58
2023/02/05 07:28:59;;;;;;;4.53;3.78;;;;;;;;;;5134240;27;20278;-58
2023/02/05 07:31:26;;;;;;;4.13;3.83;;;;;;;;;;5134119;27;20194;-58
2023/02/05 07:33:54;;;;;;;4.47;3.88;;;;;;;;;;5134017;27;20194;-58
2023/02/05 07:36:21;;;;;;;5.20;4.80;;;;;;;;;;5133925;27;20274;-57
2023/02/05 07:38:48;;;;;;;5.10;4.60;;;;;;;;;;5134209;27;20237;-58
2023/02/05 07:41:16;;;;;;;6.85;4.22;;;;;;;;;;5134080;27;20223;-57
2023/02/05 07:43:43;;;;;;;3.90;3.58;;;;;;;;;;5134044;27;20315;-58
2023/02/05 07:46:11;;;;;;;4.22;3.85;;;;;;;;;;5133818;27;20331;-58
2023/02/05 07:48:38;;;;;;;6.35;5.30;;;;;;;;;;5133828;27;20188;-58
2023/02/05 07:51:07;;;;;;;6.10;5.05;;;;;;;;;;5134133;27;20197;-58
2023/02/05 07:53:34;;;;;;;6.75;4.50;;;;;;;;;;5133790;27;20685;-57
2023/02/05 07:56:03;;;;;;;7.30;4.82;;;;;;;;;;5133894;27;20267;-58
2023/02/05 07:58:30;;;;;;;8.05;5.40;;;;;;;;;;5133824;27;20195;-59
2023/02/05 08:01:00;;;;;;;8.10;6.63;;;;;;;;;;5133640;28;20207;-58
2023/02/05 08:03:27;;;;;;;6.50;5.45;;;;;;;;;;5133984;28;20186;-58
2023/02/05 08:05:54;;;;;;;5.18;4.68;;;;;;;;;;5133993;28;20278;-57
2023/02/05 08:08:22;;;;;;;5.45;4.95;;;;;;;;;;5133752;28;20192;-58
2023/02/05 08:10:49;;;;;;;13.10;9.48;;;;;;;;;;5133667;28;20198;-57
2023/02/05 08:13:16;;;;;;;14.60;6.82;;;;;;;;;;5133650;28;20190;-58
2023/02/05 08:15:43;;;;;;;5.15;4.65;;;;;;;;;;5133182;28;20198;-55
2023/02/05 08:18:10;;;;;;;9.25;6.38;;;;;;;;;;5133287;28;20275;-57
2023/02/05 08:20:36;;;;;;;12.77;7.00;;;;;;;;;;5134145;27;20551;-58
2023/02/05 08:23:04;;;;;;;9.52;7.38;;;;;;;;;;5137333;27;20271;-57
2023/02/05 08:25:32;;;;;;;7.45;4.72;;;;;;;;;;5137369;27;20188;-58
2023/02/05 08:27:59;;;;;;;5.05;4.30;;;;;;;;;;5137301;27;20283;-57
2023/02/05 08:30:26;;;;;;;7.00;4.00;;;;;;;;;;5137080;27;20275;-57
2023/02/05 08:32:53;;;;;;;11.65;7.53;;;;;;;;;;5137304;27;20193;-57
2023/02/05 08:35:20;;;;;;;4.20;3.80;;;;;;;;;;5137246;27;20522;-58
2023/02/05 08:37:47;;;;;;;4.38;4.00;;;;;;;;;;5137112;27;20183;-57
2023/02/05 08:40:14;;;;;;;7.05;4.35;;;;;;;;;;5137105;27;20190;-58
2023/02/05 08:42:42;;;;;;;5.63;4.40;;;;;;;;;;5136937;27;20243;-57
2023/02/05 08:45:10;;;;;;;8.77;7.88;;;;;;;;;;5136997;27;20218;-58
2023/02/05 08:47:37;;;;;;;7.22;5.60;;;;;;;;;;5137165;27;20188;-59
2023/02/05 08:50:05;;;;;;;8.20;5.70;;;;;;;;;;5137023;27;20278;-58
2023/02/05 08:52:32;;;;;;;5.95;5.35;;;;;;;;;;5136927;27;20533;-57
2023/02/05 08:54:59;;;;;;;10.75;6.07;;;;;;;;;;5136921;27;20187;-57
2023/02/05 08:57:27;;;;;;;6.70;5.80;;;;;;;;;;5136923;27;20187;-58
2023/02/05 08:59:55;;;;;;;5.55;4.95;;;;;;;;;;5136705;27;20198;-56
2023/02/05 09:02:22;;;;;;;5.65;5.13;;;;;;;;;;5136532;27;20258;-57
2023/02/05 09:04:49;;;;;;;5.65;4.68;;;;;;;;;;5136734;27;20226;-58
2023/02/05 09:07:17;;;;;;;6.13;4.95;;;;;;;;;;5136801;27;20213;-58
2023/02/05 09:09:43;;;;;;;7.15;5.05;;;;;;;;;;5136432;27;20187;-57
2023/02/05 09:12:10;;;;;;;6.28;4.45;;;;;;;;;;5136301;27;20191;-58
2023/02/05 09:14:37;;;;;;;4.30;3.67;;;;;;;;;;5136634;27;20195;-58
2023/02/05 09:17:06;;;;;;;4.93;4.53;;;;;;;;;;5136474;27;20188;-57
2023/02/05 09:19:34;;;;;;;5.78;4.70;;;;;;;;;;5136427;27;20278;-58
2023/02/05 09:22:01;;;;;;;5.20;4.15;;;;;;;;;;5136285;27;20214;-57
2023/02/05 09:24:28;;;;;;;4.03;3.67;;;;;;;;;;5136125;27;20275;-58
2023/02/05 09:26:55;;;;;;;8.00;3.65;;;;;;;;;;5136344;27;20750;-58
2023/02/05 09:29:22;;;;;;;5.25;4.05;;;;;;;;;;5136100;27;20294;-58
2023/02/05 09:31:49;;;;;;;5.70;4.18;;;;;;;;;;5135568;27;20203;-55
2023/02/05 09:34:17;;;;;;;4.93;3.80;;;;;;;;;;5135683;27;20210;-58
2023/02/05 09:36:44;;;;;;;4.65;3.92;;;;;;;;;;5135949;27;20528;-56
2023/02/05 09:39:11;;;;;;;5.82;4.90;;;;;;;;;;5135720;27;20188;-58
2023/02/05 09:41:43;;;;;;;6.18;3.55;;;;;;;;;;5135641;27;20246;-59
2023/02/05 09:44:15;;;;;;;3.50;3.20;;;;;;;;;;5136088;27;20191;-59
2023/02/05 09:46:45;;;;;;;4.85;3.67;;;;;;;;;;5135632;27;20640;-58
2023/02/05 09:49:16;;;;;;;5.15;3.60;;;;;;;;;;5135782;27;20275;-59
2023/02/05 09:51:46;;;;;;;6.07;3.97;;;;;;;;;;5135610;27;20195;-58
2023/02/05 09:54:16;;;;;;;4.05;3.53;;;;;;;;;;5135653;27;20193;-59
2023/02/05 09:56:44;;;;;;;3.33;3.00;;;;;;;;;;5135654;27;20193;-56
2023/02/05 09:59:14;;;;;;;7.00;3.50;;;;;;;;;;5135584;27;20290;-59
2023/02/05 10:01:43;;;;;;;6.72;3.30;;;;;;;;;;5135234;27;20257;-56
2023/02/05 10:04:10;;;;;;;3.50;3.20;;;;;;;;;;5135291;27;20278;-59
2023/02/05 10:06:43;;;;;;;3.45;2.72;;;;;;;;;;5135593;27;20224;-58
2023/02/05 10:09:17;;;;;;;4.95;2.50;;;;;;;;;;5135454;27;20620;-59
2023/02/05 10:11:49;;;;;;;2.33;2.00;;;;;;;;;;5135380;27;20198;-58
2023/02/05 10:14:21;;;;;;;4.90;2.40;;;;;;;;;;5135189;27;20279;-58
2023/02/05 10:16:55;;;;;;;2.60;2.40;;;;;;;;;;5135498;27;20609;-58
2023/02/05 10:19:37;;;;;;;2.08;1.98;;;;;;;;;;5135245;27;20192;-57
2023/02/05 10:22:10;;;;;;;4.65;2.17;;;;;;;;;;5135093;27;20237;-58
2023/02/05 10:24:55;;;;;;;6.10;2.50;;;;;;;;;;5134988;27;20184;-58
2023/02/05 10:27:24;;;;;;;3.00;2.10;;;;;;;;;;5134715;27;20227;-56
2023/02/05 10:29:58;;;;;;;2.33;2.13;;;;;;;;;;5134931;27;20303;-58
2023/02/05 10:32:25;;;;;;;2.97;2.20;;;;;;;;;;5134776;27;20202;-56
2023/02/05 10:34:58;;;;;;;2.85;2.65;;;;;;;;;;5134688;27;20185;-56
2023/02/05 10:37:30;;;;;;;4.72;2.10;;;;;;;;;;5134658;27;20244;-56
2023/02/05 10:39:57;;;;;;;2.50;2.30;;;;;;;;;;5134902;27;20191;-58
2023/02/05 10:42:28;;;;;;;3.85;2.28;;;;;;;;;;5134393;27;20253;-57
2023/02/05 10:45:00;;;;;;;5.50;2.50;;;;;;;;;;5134543;27;20225;-57
2023/02/05 10:47:37;;;;;;;2.45;2.00;;;;;;;;;;5135037;27;20214;-58
2023/02/05 10:50:07;;;;;;;5.25;1.92;;;;;;;;;;5134499;27;20195;-57
2023/02/05 10:52:34;;;;;;;2.30;2.10;;;;;;;;;;5134574;27;20193;-58
2023/02/05 10:55:01;;;;;;;4.93;2.42;;;;;;;;;;5134401;27;20542;-57
2023/02/05 10:57:31;;;;;;;2.80;2.40;;;;;;;;;;5134321;27;20195;-59
2023/02/05 11:00:00;;;;;;;4.55;2.22;;;;;;;;;;5134191;27;20184;-57
2023/02/05 11:02:31;;;;;;;3.70;3.30;;;;;;;;;;5134016;27;20226;-58
2023/02/05 11:05:00;;;;;;;3.58;2.22;;;;;;;;;;5134364;27;20288;-58
2023/02/05 11:07:32;;;;;;;5.22;2.45;;;;;;;;;;5134245;27;20190;-58
2023/02/05 11:10:13;;;;;;;3.42;1.75;;;;;;;;;;5134112;27;20284;-58
2023/02/05 11:12:43;;;;;;;2.28;1.90;;;;;;;;;;5134041;27;20192;-59
2023/02/05 11:15:18;;;;;;;1.92;1.80;;;;;;;;;;5134165;27;20550;-58
2023/02/05 11:17:50;;;;;;;2.25;1.55;;;;;;;;;;5134150;27;20283;-58
2023/02/05 11:20:26;;;;;;;2.13;1.70;;;;;;;;;;5133887;27;20193;-58
2023/02/05 11:23:05;;;;;;;3.72;1.83;;;;;;;;;;5133719;27;20589;-57
2023/02/05 11:25:32;;;;;;;2.65;1.65;;;;;;;;;;5134212;27;20283;-56
2023/02/05 11:28:01;;;;;;;2.40;1.65;;;;;;;;;;5133878;27;20279;-59
2023/02/05 11:30:30;;;;;;;2.10;1.80;;;;;;;;;;5133870;27;20189;-58
2023/02/05 11:32:57;;;;;;;3.58;1.70;;;;;;;;;;5133733;27;20559;-57
2023/02/05 11:35:25;;;;;;;2.90;2.00;;;;;;;;;;5133595;27;20366;-57
2023/02/05 11:37:56;;;;;;;1.90;1.42;;;;;;;;;;5133455;27;20275;-57
2023/02/05 11:40:25;;;;;;;3.55;1.70;;;;;;;;;;5133654;27;20625;-58
2023/02/05 11:42:57;;;;;;;2.97;2.00;;;;;;;;;;5133349;27;20690;-59
2023/02/05 11:45:26;;;;;;;2.00;1.90;;;;;;;;;;5133506;27;20224;-59
2023/02/05 11:47:53;;;;;;;5.53;2.00;;;;;;;;;;5133537;27;20189;-57
2023/02/05 11:50:22;;;;;;;2.70;2.00;;;;;;;;;;5133313;27;20272;-57
2023/02/05 11:52:50;;;;;;;4.07;2.00;;;;;;;;;;5133526;27;20188;-57
2023/02/05 11:55:35;;;;;;;2.45;1.50;;;;;;;;;;5133161;27;20284;-57
2023/02/05 11:58:03;;;;;;;3.45;2.45;;;;;;;;;;5133373;27;20197;-57
2023/02/05 12:00:31;;;;;;;3.17;1.60;;;;;;;;;;5133280;27;20288;-57
2023/02/05 12:03:06;;;;;;;6.18;2.00;;;;;;;;;;5133417;28;20763;-57
2023/02/05 12:05:35;;;;;;;2.42;1.77;;;;;;;;;;5133552;28;20219;-58
2023/02/05 12:08:05;;;;;;;2.30;2.08;;;;;;;;;;5133729;28;20686;-57
2023/02/05 12:10:37;;;;;;;2.65;1.70;;;;;;;;;;5133435;28;20205;-57
2023/02/05 12:13:07;;;;;;;2.33;1.60;;;;;;;;;;5133264;28;20253;-57
2023/02/05 12:15:40;;;;;;;1.85;1.73;;;;;;;;;;5133444;28;20244;-57
2023/02/05 12:18:12;;;;;;;3.45;1.75;;;;;;;;;;5133467;28;20193;-58
2023/02/05 12:20:40;;;;;;;1.63;1.50;;;;;;;;;;5133280;28;20279;-57
2023/02/05 12:23:25;;;;;;;4.28;1.80;;;;;;;;;;5133043;28;20649;-57
2023/02/05 12:25:57;;;;;;;4.40;2.85;;;;;;;;;;5133051;28;20199;-58
2023/02/05 12:28:30;;;;;;;3.72;1.70;;;;;;;;;;5133251;28;20574;-57
2023/02/05 12:31:02;;;;;;;2.58;1.40;;;;;;;;;;5133243;28;20295;-56
2023/02/05 12:33:36;;;;;;;2.17;1.20;;;;;;;;;;5133124;28;20280;-58
2023/02/05 12:36:08;;;;;;;4.20;2.00;;;;;;;;;;5133056;28;20311;-57
2023/02/05 12:38:44;;;;;;;3.42;1.95;;;;;;;;;;5133214;28;20265;-57
2023/02/05 12:41:20;;;;;;;1.92;1.83;;;;;;;;;;5133164;28;20599;-58
2023/02/05 12:43:48;;;;;;;3.38;1.60;;;;;;;;;;5132919;28;20302;-58
2023/02/05 12:46:30;;;;;;;1.60;1.50;;;;;;;;;;5132839;28;20220;-57
2023/02/05 12:49:04;;;;;;;2.45;1.65;;;;;;;;;;5129180;28;20196;-58
2023/02/05 12:51:36;;;;;;;3.75;1.60;;;;;;;;;;5132955;28;20195;-57
2023/02/05 12:54:10;;;;;;;2.10;1.48;;;;;;;;;;5132974;28;20195;-58
2023/02/05 12:56:44;;;;;;;3.25;1.75;;;;;;;;;;5132883;28;20189;-57
2023/02/05 12:59:13;;;;;;;1.52;1.42;;;;;;;;;;5133098;28;20181;-58
2023/02/05 13:01:43;;;;;;;1.80;1.70;;;;;;;;;;5132685;28;20196;-58
2023/02/05 13:04:19;;;;;;;2.55;1.40;;;;;;;;;;5132898;28;20728;-57
2023/02/05 13:06:49;;;;;;;2.70;1.80;;;;;;;;;;5132754;27;20195;-57
2023/02/05 13:09:19;;;;;;;3.20;2.20;;;;;;;;;;5136166;27;20278;-55
2023/02/05 13:11:49;;;;;;;3.60;2.00;;;;;;;;;;5136317;27;20288;-56
2023/02/05 13:14:18;;;;;;;2.30;2.10;;;;;;;;;;5136457;27;20275;-57
2023/02/05 13:16:47;;;;;;;6.72;2.05;;;;;;;;;;5136436;27;20192;-58
2023/02/05 13:19:20;;;;;;;2.42;1.40;;;;;;;;;;5136223;27;20283;-56
2023/02/05 13:30:10;;;;;;;1.85;1.63;;;;;;;;;;5136059;27;20192;-57
2023/02/05 13:32:37;;;;;;;1.63;1.52;;;;;;;;;;5136220;27;20281;-56
2023/02/05 13:35:06;;;;;;;1.65;1.40;;;;;;;;;;5136090;27;20601;-56
2023/02/05 13:37:42;;;;;;;3.15;1.73;;;;;;;;;;5136278;27;20196;-57
2023/02/05 13:40:14;;;;;;;3.20;1.75;;;;;;;;;;5136019;27;20282;-57
2023/02/05 13:42:49;;;;;;;5.43;1.60;;;;;;;;;;5135755;27;20670;-58
2023/02/05 13:45:35;;;;;;;3.25;1.70;;;;;;;;;;5135694;27;20220;-55
2023/02/05 13:48:09;;;;;;;3.08;1.70;;;;;;;;;;5135690;27;20197;-56
2023/02/05 13:50:43;;;;;;;1.80;1.23;;;;;;;;;;5135443;27;20281;-56
2023/02/05 13:53:21;;;;;;;2.95;2.22;;;;;;;;;;5135532;27;20194;-57
2023/02/05 13:55:56;;;;;;;4.40;2.05;;;;;;;;;;5135353;27;20189;-57
2023/02/05 13:58:23;;;;;;;2.92;1.90;;;;;;;;;;5135005;27;20629;-58
2023/02/05 14:00:53;;;;;;;3.75;1.70;;;;;;;;;;5135216;27;20196;-57
2023/02/05 14:03:28;;;;;;;2.60;1.70;;;;;;;;;;5135476;27;20735;-58
2023/02/05 14:05:56;;;;;;;1.95;1.67;;;;;;;;;;5135265;27;20196;-58
2023/02/05 14:08:26;;;;;;;1.45;1.35;;;;;;;;;;5135417;27;20613;-55
2023/02/05 14:10:58;;;;;;;3.50;1.65;;;;;;;;;;5135114;27;20190;-58
2023/02/05 14:13:27;;;;;;;2.15;1.38;;;;;;;;;;5134698;27;20202;-58
2023/02/05 14:15:56;;;;;;;2.78;1.30;;;;;;;;;;5135030;27;20208;-58
2023/02/05 14:18:42;;;;;;;7.60;1.90;;;;;;;;;;5134610;27;20250;-58
2023/02/05 14:21:24;;;;;;;3.47;1.60;;;;;;;;;;5135159;27;20186;-58
2023/02/05 14:23:55;;;;;;;3.53;1.55;;;;;;;;;;5134152;27;20217;-58
2023/02/05 14:26:44;;;;;;;2.22;1.88;;;;;;;;;;5134723;27;20276;-58
2023/02/05 14:29:26;;;;;;;2.20;1.70;;;;;;;;;;5135057;27;20197;-58
2023/02/05 14:31:53;;;;;;;1.60;1.50;;;;;;;;;;5134139;27;20549;-58
2023/02/05 14:34:44;;;;;;;1.70;1.60;;;;;;;;;;5134906;27;20194;-58
2023/02/05 14:37:24;;;;;;;4.35;1.50;;;;;;;;;;5135119;27;20188;-58
2023/02/05 14:39:52;;;;;;;2.30;1.67;;;;;;;;;;5134845;27;20197;-58
2023/02/05 14:42:20;;;;;;;2.90;1.38;;;;;;;;;;5134625;27;20196;-58
2023/02/05 14:44:53;;;;;;;1.40;1.30;;;;;;;;;;5134411;27;20671;-57
2023/02/05 14:47:22;;;;;;;3.17;1.83;;;;;;;;;;5134519;27;20189;-58
2023/02/05 14:49:49;;;;;;;1.60;1.50;;;;;;;;;;5134812;27;20193;-58
2023/02/05 14:52:23;;;;;;;3.63;1.50;;;;;;;;;;5134588;27;20550;-58
2023/02/05 14:54:56;;;;;;;2.10;1.75;;;;;;;;;;5134431;27;20277;-58
2023/02/05 14:57:27;;;;;;;1.80;1.40;;;;;;;;;;5134150;27;20637;-58
2023/02/05 14:59:55;;;;;;;3.92;1.83;;;;;;;;;;5134309;27;20606;-57
2023/02/05 15:02:41;;;;;;;2.85;1.85;;;;;;;;;;5134149;27;20254;-58
2023/02/05 15:05:10;;;;;;;3.15;1.90;;;;;;;;;;5134389;27;20199;-58
2023/02/05 15:07:37;;;;;;;2.55;1.88;;;;;;;;;;5134266;27;20288;-56